Time;durP1;ratioP1;P1;durP2;ratioP2;P2;SDS_P1;SDS_P2;PMS_P1;PMS_P2;Temp;Humidity;BMP_temperature;BMP_pressure;BME280_temperature;BME280_humidity;BME280_pressure;Samples;Min_cycle;Max_cycle;Signal;HPM_P1;HPM_P2
2022/03/21 00:00:52;;;;;;;14.30;11.80;;;;;;;;;;5120467;27;20387;-51
2022/03/21 00:03:19;;;;;;;17.17;13.13;;;;;;;;;;5105695;27;20035;-52
2022/03/21 00:05:45;;;;;;;15.13;11.40;;;;;;;;;;5130439;27;20031;-50
2022/03/21 00:08:12;;;;;;;15.27;11.00;;;;;;;;;;5110051;27;20083;-48
2022/03/21 00:10:39;;;;;;;14.50;11.60;;;;;;;;;;5127449;27;20039;-50
2022/03/21 00:13:05;;;;;;;16.97;12.43;;;;;;;;;;5132866;27;20064;-48
2022/03/21 00:15:32;;;;;;;17.13;11.83;;;;;;;;;;5124555;27;20027;-49
2022/03/21 00:18:01;;;;;;;16.87;12.37;;;;;;;;;;5128543;27;20027;-48
2022/03/21 00:20:27;;;;;;;16.13;10.93;;;;;;;;;;5112252;27;20035;-48
2022/03/21 00:22:53;;;;;;;15.47;11.17;;;;;;;;;;5129021;27;20038;-48
2022/03/21 00:25:19;;;;;;;14.43;11.20;;;;;;;;;;5131889;27;20472;-49
2022/03/21 00:27:45;;;;;;;17.63;11.73;;;;;;;;;;5128864;27;20442;-48
2022/03/21 00:30:12;;;;;;;14.47;12.03;;;;;;;;;;5114590;27;20046;-49
2022/03/21 00:32:38;;;;;;;16.17;11.57;;;;;;;;;;5111958;27;20080;-47
2022/03/21 00:35:08;;;;;;;15.43;11.90;;;;;;;;;;5132262;27;20059;-48
2022/03/21 00:37:35;;;;;;;17.33;11.43;;;;;;;;;;5128934;27;20096;-48
2022/03/21 00:40:02;;;;;;;13.87;11.17;;;;;;;;;;5115749;27;20076;-48
2022/03/21 00:42:28;;;;;;;16.83;12.03;;;;;;;;;;5111164;27;20091;-53
2022/03/21 00:44:57;;;;;;;16.83;12.33;;;;;;;;;;5128046;27;20471;-49
2022/03/21 00:47:24;;;;;;;18.50;11.80;;;;;;;;;;5121113;27;20082;-50
2022/03/21 00:49:52;;;;;;;19.57;11.83;;;;;;;;;;5118534;27;20043;-52
2022/03/21 00:52:18;;;;;;;16.93;11.60;;;;;;;;;;5128364;27;20071;-50
2022/03/21 00:54:44;;;;;;;14.67;11.37;;;;;;;;;;5127045;27;20016;-48
2022/03/21 00:57:10;;;;;;;14.60;11.73;;;;;;;;;;5122109;27;20027;-49
2022/03/21 00:59:37;;;;;;;16.57;11.53;;;;;;;;;;5126978;27;20468;-53
2022/03/21 01:02:04;;;;;;;16.83;11.40;;;;;;;;;;5126244;27;20066;-54
2022/03/21 01:04:30;;;;;;;14.67;11.90;;;;;;;;;;5125198;27;20150;-54
2022/03/21 01:06:57;;;;;;;13.87;11.40;;;;;;;;;;5129568;27;20034;-53
2022/03/21 01:09:24;;;;;;;14.17;11.37;;;;;;;;;;5133054;27;20384;-51
2022/03/21 01:11:51;;;;;;;16.27;11.67;;;;;;;;;;5127175;27;20037;-49
2022/03/21 01:14:17;;;;;;;13.90;11.53;;;;;;;;;;5126685;27;20084;-52
2022/03/21 01:16:43;;;;;;;15.00;11.57;;;;;;;;;;5113453;28;20047;-49
2022/03/21 01:19:10;;;;;;;15.40;11.80;;;;;;;;;;5122474;27;20031;-48
2022/03/21 01:21:36;;;;;;;15.70;11.33;;;;;;;;;;5127237;28;20042;-47
2022/03/21 01:24:02;;;;;;;14.37;11.40;;;;;;;;;;5132152;28;20023;-48
2022/03/21 01:26:28;;;;;;;13.87;10.97;;;;;;;;;;5122761;28;20048;-47
2022/03/21 01:28:54;;;;;;;12.93;10.63;;;;;;;;;;5121429;28;20030;-47
2022/03/21 01:31:20;;;;;;;16.17;11.43;;;;;;;;;;5099730;28;20117;-47
2022/03/21 01:33:46;;;;;;;15.70;11.40;;;;;;;;;;5127828;28;20051;-48
2022/03/21 01:36:12;;;;;;;16.73;12.70;;;;;;;;;;5127297;28;20031;-47
2022/03/21 01:38:38;;;;;;;18.97;12.13;;;;;;;;;;5121991;28;20032;-51
2022/03/21 01:41:04;;;;;;;12.93;11.50;;;;;;;;;;5115432;28;20027;-48
2022/03/21 01:43:31;;;;;;;15.60;11.27;;;;;;;;;;5120695;28;20664;-49
2022/03/21 01:45:57;;;;;;;15.10;11.40;;;;;;;;;;5116100;28;20094;-47
2022/03/21 01:48:23;;;;;;;17.30;11.53;;;;;;;;;;5108683;28;20458;-53
2022/03/21 01:50:49;;;;;;;14.27;10.57;;;;;;;;;;5129088;27;20139;-48
2022/03/21 01:56:00;;;;;;;14.27;11.30;;;;;;;;;;5131547;27;20084;-50
2022/03/21 01:58:26;;;;;;;15.83;11.83;;;;;;;;;;5117448;27;20400;-49
2022/03/21 02:00:52;;;;;;;16.80;11.32;;;;;;;;;;5133800;27;20030;-50
2022/03/21 02:03:22;;;;;;;13.73;11.70;;;;;;;;;;5134138;27;20039;-48
2022/03/21 02:05:48;;;;;;;14.73;11.83;;;;;;;;;;5131804;27;20430;-48
2022/03/21 02:08:15;;;;;;;16.80;11.83;;;;;;;;;;5134228;27;20115;-48
2022/03/21 02:10:45;;;;;;;15.17;11.60;;;;;;;;;;5132193;27;20027;-49
2022/03/21 02:13:13;;;;;;;14.10;11.27;;;;;;;;;;5119925;27;20192;-47
2022/03/21 02:15:39;;;;;;;14.33;11.57;;;;;;;;;;5124045;27;20089;-48
2022/03/21 02:30:19;;;;;;;14.63;11.33;;;;;;;;;;5124411;27;20034;-50
2022/03/21 02:32:47;;;;;;;15.60;11.30;;;;;;;;;;5122385;27;20027;-47
2022/03/21 02:35:13;;;;;;;15.43;11.60;;;;;;;;;;5121045;27;20036;-50
2022/03/21 02:37:39;;;;;;;14.43;11.63;;;;;;;;;;5119631;27;20038;-47
2022/03/21 02:40:08;;;;;;;17.97;11.90;;;;;;;;;;5119201;27;20095;-49
2022/03/21 02:42:34;;;;;;;16.90;11.70;;;;;;;;;;5125075;27;20042;-52
2022/03/21 02:45:00;;;;;;;17.47;12.33;;;;;;;;;;5128369;27;20065;-50
2022/03/21 02:47:26;;;;;;;14.63;11.07;;;;;;;;;;5124296;27;20465;-50
2022/03/21 02:49:53;;;;;;;15.33;12.27;;;;;;;;;;5115613;27;20030;-53
2022/03/21 02:52:20;;;;;;;13.23;11.33;;;;;;;;;;5132330;27;20498;-51
2022/03/21 02:54:46;;;;;;;15.70;11.90;;;;;;;;;;5124567;27;20031;-52
2022/03/21 02:57:12;;;;;;;15.00;11.70;;;;;;;;;;5118567;27;20107;-50
2022/03/21 02:59:38;;;;;;;14.03;11.87;;;;;;;;;;5116397;27;20494;-51
2022/03/21 03:02:07;;;;;;;18.03;12.67;;;;;;;;;;5114598;27;20043;-48
2022/03/21 03:04:33;;;;;;;15.03;11.60;;;;;;;;;;5127796;27;20026;-49
2022/03/21 03:06:59;;;;;;;14.97;11.53;;;;;;;;;;5126415;27;20031;-48
2022/03/21 03:09:25;;;;;;;13.50;11.60;;;;;;;;;;5130764;27;20385;-48
2022/03/21 03:11:51;;;;;;;16.23;12.43;;;;;;;;;;5110857;27;20039;-48
2022/03/21 03:14:17;;;;;;;13.47;11.23;;;;;;;;;;5123391;27;20029;-48
2022/03/21 03:16:43;;;;;;;14.07;11.90;;;;;;;;;;5107167;27;20392;-52
2022/03/21 03:19:09;;;;;;;14.20;11.57;;;;;;;;;;5123110;27;20023;-47
2022/03/21 03:21:45;;;;;;;17.93;12.73;;;;;;;;;;5112293;27;20035;-51
2022/03/21 03:24:12;;;;;;;13.73;11.07;;;;;;;;;;5132144;27;20332;-47
2022/03/21 03:26:38;;;;;;;15.47;12.00;;;;;;;;;;5121558;27;20016;-48
2022/03/21 03:29:04;;;;;;;14.13;11.67;;;;;;;;;;5121045;27;20556;-49
2022/03/21 03:31:31;;;;;;;16.57;12.57;;;;;;;;;;5114232;27;20080;-48
2022/03/21 03:33:58;;;;;;;17.60;12.27;;;;;;;;;;5133142;27;20039;-49
2022/03/21 03:36:25;;;;;;;15.83;12.37;;;;;;;;;;5113694;27;20120;-50
2022/03/21 03:38:52;;;;;;;18.83;12.40;;;;;;;;;;5125841;27;20480;-52
2022/03/21 03:41:19;;;;;;;15.70;12.40;;;;;;;;;;5114346;27;20028;-48
2022/03/21 03:43:45;;;;;;;15.63;11.63;;;;;;;;;;5115616;27;20033;-48
2022/03/21 03:46:11;;;;;;;17.03;11.73;;;;;;;;;;5116764;27;20035;-48
2022/03/21 03:48:38;;;;;;;17.27;12.23;;;;;;;;;;5134764;27;20106;-48
2022/03/21 03:51:04;;;;;;;14.67;11.83;;;;;;;;;;5113956;27;20038;-48
2022/03/21 03:53:30;;;;;;;14.77;11.30;;;;;;;;;;5119872;27;20077;-47
2022/03/21 03:55:56;;;;;;;17.97;11.97;;;;;;;;;;5123023;27;20477;-48
2022/03/21 03:58:22;;;;;;;16.67;11.93;;;;;;;;;;5117633;27;20037;-47
2022/03/21 04:00:49;;;;;;;14.17;12.07;;;;;;;;;;5123493;27;20164;-49
2022/03/21 04:06:00;;;;;;;16.50;11.93;;;;;;;;;;5123231;27;20128;-48
2022/03/21 04:08:26;;;;;;;15.40;11.50;;;;;;;;;;5133916;27;20019;-49
2022/03/21 04:10:52;;;;;;;15.47;12.20;;;;;;;;;;5115923;27;20098;-49
2022/03/21 04:13:18;;;;;;;17.03;12.50;;;;;;;;;;5115009;27;20027;-49
2022/03/21 04:15:44;;;;;;;15.83;12.60;;;;;;;;;;5131251;27;20331;-49
2022/03/21 04:18:10;;;;;;;15.87;12.43;;;;;;;;;;5129687;27;20114;-48
2022/03/21 04:20:37;;;;;;;15.33;12.93;;;;;;;;;;5133729;27;20159;-50
2022/03/21 04:23:04;;;;;;;18.87;12.63;;;;;;;;;;5115401;27;20040;-53
2022/03/21 04:25:30;;;;;;;17.23;13.20;;;;;;;;;;5122851;27;20015;-54
2022/03/21 04:27:56;;;;;;;17.50;13.27;;;;;;;;;;5126294;27;20035;-48
2022/03/21 04:30:23;;;;;;;17.87;14.13;;;;;;;;;;5129171;27;20546;-53
2022/03/21 04:32:49;;;;;;;16.87;13.50;;;;;;;;;;5130433;27;20027;-49
2022/03/21 04:35:16;;;;;;;18.53;13.83;;;;;;;;;;5132776;27;20392;-51
2022/03/21 04:37:42;;;;;;;17.63;13.03;;;;;;;;;;5117499;27;20034;-51
2022/03/21 04:40:09;;;;;;;14.93;12.37;;;;;;;;;;5109389;27;20027;-50
2022/03/21 04:42:35;;;;;;;17.43;13.20;;;;;;;;;;5118218;27;20039;-50
2022/03/21 04:45:02;;;;;;;18.93;14.53;;;;;;;;;;5128511;27;20094;-48
2022/03/21 04:47:28;;;;;;;19.73;13.17;;;;;;;;;;5126687;27;21885;-49
2022/03/21 04:49:55;;;;;;;16.93;12.73;;;;;;;;;;5100194;28;20055;-48
2022/03/21 04:52:21;;;;;;;21.57;13.23;;;;;;;;;;5118827;27;20032;-47
2022/03/21 04:54:48;;;;;;;18.20;12.87;;;;;;;;;;5125010;27;20034;-48
2022/03/21 04:57:14;;;;;;;20.33;12.83;;;;;;;;;;5120821;27;20024;-47
2022/03/21 04:59:40;;;;;;;18.73;13.23;;;;;;;;;;5117050;27;20027;-50
2022/03/21 05:02:06;;;;;;;16.53;13.23;;;;;;;;;;5124400;27;20039;-51
2022/03/21 05:04:34;;;;;;;15.30;12.27;;;;;;;;;;5117917;27;20024;-48
2022/03/21 05:07:00;;;;;;;17.47;12.90;;;;;;;;;;5120722;27;20026;-50
2022/03/21 05:09:26;;;;;;;18.47;12.47;;;;;;;;;;5125570;27;20030;-49
2022/03/21 05:11:52;;;;;;;17.80;12.50;;;;;;;;;;5103343;27;20023;-48
2022/03/21 05:14:19;;;;;;;20.87;12.90;;;;;;;;;;5121721;27;20026;-51
2022/03/21 05:16:48;;;;;;;18.73;12.97;;;;;;;;;;5122347;28;20488;-48
2022/03/21 05:19:14;;;;;;;15.07;12.53;;;;;;;;;;5124732;27;20030;-50
2022/03/21 05:21:41;;;;;;;15.50;12.20;;;;;;;;;;5118554;28;20321;-47
2022/03/21 05:32:22;;;;;;;16.98;12.75;;;;;;;;;;5136321;27;20040;-49
2022/03/21 05:37:32;;;;;;;15.27;11.18;;;;;;;;;;5128239;27;20107;-48
2022/03/21 05:42:43;;;;;;;14.20;10.45;;;;;;;;;;5127081;27;20045;-48
2022/03/21 05:45:09;;;;;;;13.73;10.70;;;;;;;;;;5123445;27;20491;-47
2022/03/21 05:48:50;;;;;;;17.27;10.97;;;;;;;;;;5132173;27;20062;-49
2022/03/21 05:50:22;;;;;;;15.33;11.17;;;;;;;;;;5126423;27;20034;-47
2022/03/21 05:52:48;;;;;;;12.87;10.57;;;;;;;;;;5128079;27;20557;-48
2022/03/21 05:55:14;;;;;;;14.93;10.70;;;;;;;;;;5121758;27;20121;-51
2022/03/21 05:57:41;;;;;;;15.00;10.77;;;;;;;;;;5137975;27;20019;-48
2022/03/21 06:00:22;;;;;;;18.07;11.53;;;;;;;;;;5125658;27;20025;-48
2022/03/21 06:02:50;;;;;;;15.13;11.37;;;;;;;;;;5127111;27;20035;-49
2022/03/21 06:05:16;;;;;;;15.27;11.70;;;;;;;;;;5119353;27;20028;-52
2022/03/21 06:07:42;;;;;;;14.93;11.23;;;;;;;;;;5129442;27;20118;-54
2022/03/21 06:10:08;;;;;;;14.63;11.00;;;;;;;;;;5126129;27;20026;-52
2022/03/21 06:12:34;;;;;;;19.30;11.80;;;;;;;;;;5128487;27;20039;-53
2022/03/21 06:15:00;;;;;;;17.10;10.40;;;;;;;;;;5129750;27;20522;-50
2022/03/21 06:17:27;;;;;;;17.80;11.47;;;;;;;;;;5129732;27;20516;-48
2022/03/21 06:19:53;;;;;;;16.27;12.00;;;;;;;;;;5130424;27;20123;-50
2022/03/21 06:22:19;;;;;;;18.90;12.77;;;;;;;;;;5132835;27;20110;-48
2022/03/21 06:24:45;;;;;;;15.87;11.20;;;;;;;;;;5138575;27;20148;-47
2022/03/21 06:27:11;;;;;;;13.80;9.50;;;;;;;;;;5134623;27;20042;-47
2022/03/21 06:29:41;;;;;;;14.80;9.53;;;;;;;;;;5126173;27;20055;-46
2022/03/21 06:32:08;;;;;;;13.03;9.33;;;;;;;;;;5136079;27;20054;-48
2022/03/21 06:34:34;;;;;;;16.50;10.80;;;;;;;;;;5124544;27;20054;-48
2022/03/21 06:37:02;;;;;;;14.57;9.90;;;;;;;;;;5129159;27;20130;-52
2022/03/21 06:39:28;;;;;;;12.07;9.37;;;;;;;;;;5119027;27;20019;-54
2022/03/21 06:41:54;;;;;;;15.17;9.23;;;;;;;;;;5134531;27;20118;-53
2022/03/21 06:44:21;;;;;;;14.63;10.10;;;;;;;;;;5119258;27;20115;-53
2022/03/21 06:46:47;;;;;;;15.47;9.87;;;;;;;;;;5115989;27;20384;-48
2022/03/21 06:49:13;;;;;;;12.57;9.10;;;;;;;;;;5118774;27;20016;-50
2022/03/21 06:51:39;;;;;;;10.30;8.20;;;;;;;;;;5124325;27;20031;-47
2022/03/21 06:54:05;;;;;;;12.13;8.07;;;;;;;;;;5125471;27;20020;-48
2022/03/21 06:56:32;;;;;;;12.80;7.87;;;;;;;;;;5124458;27;20502;-48
2022/03/21 06:58:58;;;;;;;11.20;8.13;;;;;;;;;;5119660;27;20031;-49
2022/03/21 07:01:25;;;;;;;12.77;8.30;;;;;;;;;;5116868;27;20032;-48
2022/03/21 07:03:51;;;;;;;10.97;8.13;;;;;;;;;;5132000;27;20103;-48
2022/03/21 07:06:19;;;;;;;9.77;8.33;;;;;;;;;;5131489;27;20179;-48
2022/03/21 07:08:51;;;;;;;13.03;8.83;;;;;;;;;;5128189;27;20060;-51
2022/03/21 07:11:18;;;;;;;11.33;8.17;;;;;;;;;;5128663;27;20055;-47
2022/03/21 07:13:44;;;;;;;9.93;8.50;;;;;;;;;;5095924;28;20036;-48
2022/03/21 07:16:15;;;;;;;11.17;8.43;;;;;;;;;;5129671;27;20027;-49
2022/03/21 07:18:42;;;;;;;16.13;9.40;;;;;;;;;;5132051;27;20019;-48
2022/03/21 07:21:08;;;;;;;15.07;8.80;;;;;;;;;;5134678;27;20023;-48
2022/03/21 07:23:34;;;;;;;13.33;9.50;;;;;;;;;;5124055;27;20034;-49
2022/03/21 07:26:02;;;;;;;12.93;9.37;;;;;;;;;;5125085;27;20035;-48
2022/03/21 07:28:28;;;;;;;12.13;8.97;;;;;;;;;;5126035;27;20541;-48
2022/03/21 07:30:55;;;;;;;10.87;7.93;;;;;;;;;;5124055;27;20389;-49
2022/03/21 07:33:21;;;;;;;11.33;8.87;;;;;;;;;;5123886;27;20031;-47
2022/03/21 07:35:47;;;;;;;11.83;8.13;;;;;;;;;;5121486;27;20449;-48
2022/03/21 07:38:13;;;;;;;14.30;8.77;;;;;;;;;;5100915;28;20367;-50
2022/03/21 07:40:40;;;;;;;15.33;9.03;;;;;;;;;;5122084;27;20023;-51
2022/03/21 07:43:07;;;;;;;14.67;9.70;;;;;;;;;;5123910;27;20114;-49
2022/03/21 07:48:18;;;;;;;14.82;9.43;;;;;;;;;;5128942;27;20438;-48
2022/03/21 07:50:44;;;;;;;13.13;8.67;;;;;;;;;;5109154;27;20051;-49
2022/03/21 07:53:10;;;;;;;13.60;9.00;;;;;;;;;;5129932;27;20031;-50
2022/03/21 07:55:36;;;;;;;16.43;9.70;;;;;;;;;;5115501;27;20027;-49
2022/03/21 07:58:03;;;;;;;13.47;8.13;;;;;;;;;;5113982;28;20106;-48
2022/03/21 08:00:30;;;;;;;18.70;8.90;;;;;;;;;;5116117;27;20056;-48
2022/03/21 08:02:58;;;;;;;12.70;9.23;;;;;;;;;;5134019;27;20074;-49
2022/03/21 08:05:24;;;;;;;14.20;9.23;;;;;;;;;;5133205;27;20448;-51
2022/03/21 08:07:51;;;;;;;18.77;9.90;;;;;;;;;;5133555;27;20015;-49
2022/03/21 08:10:19;;;;;;;13.17;9.40;;;;;;;;;;5119618;27;20027;-48
2022/03/21 08:12:46;;;;;;;17.00;10.50;;;;;;;;;;5122433;27;20015;-49
2022/03/21 08:15:13;;;;;;;12.73;8.87;;;;;;;;;;5118246;27;20102;-48
2022/03/21 08:17:59;;;;;;;14.90;10.03;;;;;;;;;;5122055;27;20479;-46
2022/03/21 08:20:33;;;;;;;15.80;10.67;;;;;;;;;;5121466;27;20470;-48
2022/03/21 08:22:59;;;;;;;14.53;9.27;;;;;;;;;;5120203;27;20077;-47
2022/03/21 08:25:26;;;;;;;15.53;9.37;;;;;;;;;;5131444;27;20560;-50
2022/03/21 08:27:52;;;;;;;18.57;9.50;;;;;;;;;;5133888;27;20031;-47
2022/03/21 08:30:18;;;;;;;12.90;9.80;;;;;;;;;;5132549;27;20083;-48
2022/03/21 08:32:48;;;;;;;18.90;10.13;;;;;;;;;;5133466;27;20102;-47
2022/03/21 08:35:19;;;;;;;16.90;10.37;;;;;;;;;;5119345;27;20058;-49
2022/03/21 08:37:45;;;;;;;18.27;10.03;;;;;;;;;;5120973;27;20122;-48
2022/03/21 08:40:11;;;;;;;14.37;9.53;;;;;;;;;;5131134;27;20046;-46
2022/03/21 08:42:39;;;;;;;14.57;9.50;;;;;;;;;;5129900;27;20039;-47
2022/03/21 08:45:08;;;;;;;15.30;9.80;;;;;;;;;;5122144;27;20031;-49
2022/03/21 08:47:34;;;;;;;12.97;9.63;;;;;;;;;;5122297;27;20397;-48
2022/03/21 08:50:01;;;;;;;15.03;9.93;;;;;;;;;;5130062;27;20134;-49
2022/03/21 08:52:27;;;;;;;13.00;9.70;;;;;;;;;;5125500;27;20035;-48
2022/03/21 08:54:54;;;;;;;14.77;9.20;;;;;;;;;;5130410;27;20039;-50
2022/03/21 08:57:20;;;;;;;13.20;9.97;;;;;;;;;;5123152;27;20050;-49
2022/03/21 08:59:47;;;;;;;13.50;9.77;;;;;;;;;;5131792;27;20137;-53
2022/03/21 09:02:13;;;;;;;14.37;10.00;;;;;;;;;;5124655;27;20476;-49
2022/03/21 09:04:40;;;;;;;14.33;9.50;;;;;;;;;;5119498;27;20023;-52
2022/03/21 09:07:08;;;;;;;15.20;9.60;;;;;;;;;;5116492;27;20360;-53
2022/03/21 09:09:34;;;;;;;10.93;8.60;;;;;;;;;;5121176;27;20028;-51
2022/03/21 09:12:00;;;;;;;16.53;8.57;;;;;;;;;;5121270;27;20057;-48
2022/03/21 09:14:26;;;;;;;17.33;9.23;;;;;;;;;;5125783;27;20598;-49
2022/03/21 09:16:52;;;;;;;12.40;9.73;;;;;;;;;;5113884;27;20033;-51
2022/03/21 09:19:19;;;;;;;15.13;10.17;;;;;;;;;;5122440;27;20042;-51
2022/03/21 09:21:46;;;;;;;16.63;9.77;;;;;;;;;;5123188;27;20382;-49
2022/03/21 09:24:12;;;;;;;15.03;10.00;;;;;;;;;;5105291;28;20027;-53
2022/03/21 09:26:38;;;;;;;12.40;9.43;;;;;;;;;;5129712;28;20023;-51
2022/03/21 09:29:05;;;;;;;17.53;9.80;;;;;;;;;;5102214;28;20970;-54
2022/03/21 09:31:36;;;;;;;13.97;9.43;;;;;;;;;;5131938;28;20027;-51
2022/03/21 09:34:02;;;;;;;13.23;9.60;;;;;;;;;;5115750;28;20054;-53
2022/03/21 09:36:28;;;;;;;14.23;9.40;;;;;;;;;;5112247;28;20160;-49
2022/03/21 09:38:54;;;;;;;11.87;8.70;;;;;;;;;;5127539;28;20031;-47
2022/03/21 09:41:25;;;;;;;15.47;9.80;;;;;;;;;;5132932;28;20023;-47
2022/03/21 09:43:53;;;;;;;11.98;9.25;;;;;;;;;;5130502;28;20039;-49
2022/03/21 09:46:20;;;;;;;14.03;9.43;;;;;;;;;;5133293;28;20092;-50
2022/03/21 09:48:49;;;;;;;15.47;9.70;;;;;;;;;;5131653;28;20068;-48
2022/03/21 09:51:22;;;;;;;18.27;10.43;;;;;;;;;;5133053;28;20019;-49
2022/03/21 09:53:49;;;;;;;15.57;9.70;;;;;;;;;;5131320;28;20072;-47
2022/03/21 09:56:18;;;;;;;14.07;10.18;;;;;;;;;;5121178;28;20089;-49
2022/03/21 09:58:44;;;;;;;15.27;9.70;;;;;;;;;;5122259;28;20031;-47
2022/03/21 10:01:11;;;;;;;18.13;10.37;;;;;;;;;;5133198;28;20171;-46
2022/03/21 10:03:41;;;;;;;16.13;10.73;;;;;;;;;;5131336;28;20042;-47
2022/03/21 10:06:43;;;;;;;13.13;9.63;;;;;;;;;;5132896;28;20510;-47
2022/03/21 10:09:14;;;;;;;16.73;9.50;;;;;;;;;;5053792;28;20031;-49
2022/03/21 10:11:48;;;;;;;12.30;9.63;;;;;;;;;;5114456;28;20020;-48
2022/03/21 10:14:34;;;;;;;14.38;10.52;;;;;;;;;;5135203;27;20033;-47
2022/03/21 10:17:00;;;;;;;15.83;10.30;;;;;;;;;;5118464;27;20442;-47
2022/03/21 10:19:26;;;;;;;17.70;10.02;;;;;;;;;;5123202;27;20107;-48
2022/03/21 10:22:01;;;;;;;17.13;11.60;;;;;;;;;;5116137;28;20031;-47
2022/03/21 10:24:27;;;;;;;13.93;10.25;;;;;;;;;;5130977;27;20031;-48
2022/03/21 10:26:53;;;;;;;13.93;10.68;;;;;;;;;;5136648;27;20123;-48
2022/03/21 10:29:20;;;;;;;13.48;10.07;;;;;;;;;;5134859;27;20034;-47
2022/03/21 10:31:53;;;;;;;12.68;10.23;;;;;;;;;;5099275;28;20019;-48
2022/03/21 10:34:20;;;;;;;14.50;10.48;;;;;;;;;;5128687;27;20104;-47
2022/03/21 10:37:05;;;;;;;19.30;11.77;;;;;;;;;;5136562;27;20501;-47
2022/03/21 10:39:32;;;;;;;13.68;10.32;;;;;;;;;;5134131;27;20042;-49
2022/03/21 10:42:03;;;;;;;15.15;10.40;;;;;;;;;;5136451;27;20077;-47
2022/03/21 10:44:30;;;;;;;13.18;10.70;;;;;;;;;;5135159;27;20038;-47
2022/03/21 10:46:58;;;;;;;13.82;10.00;;;;;;;;;;5136324;27;20059;-47
2022/03/21 10:49:35;;;;;;;14.38;11.07;;;;;;;;;;5134841;27;20499;-46
2022/03/21 10:52:02;;;;;;;12.20;10.32;;;;;;;;;;5135236;27;20035;-47
2022/03/21 10:54:39;;;;;;;12.75;10.38;;;;;;;;;;5134875;27;20114;-47
2022/03/21 10:57:05;;;;;;;14.02;10.27;;;;;;;;;;5136157;27;20023;-50
2022/03/21 10:59:32;;;;;;;12.65;10.20;;;;;;;;;;5134483;27;20031;-47
2022/03/21 11:02:15;;;;;;;16.50;10.63;;;;;;;;;;5117433;27;20034;-48
2022/03/21 11:04:44;;;;;;;14.05;10.20;;;;;;;;;;5134279;27;20042;-48
2022/03/21 11:07:11;;;;;;;15.20;10.75;;;;;;;;;;5135775;27;20475;-47
2022/03/21 11:09:38;;;;;;;16.48;10.00;;;;;;;;;;5134576;27;20084;-50
2022/03/21 11:12:05;;;;;;;16.25;11.02;;;;;;;;;;5117348;27;20016;-52
2022/03/21 11:14:32;;;;;;;13.80;10.35;;;;;;;;;;5119942;27;20039;-47
2022/03/21 11:16:59;;;;;;;16.45;10.98;;;;;;;;;;5124159;27;20452;-47
2022/03/21 11:19:25;;;;;;;14.25;10.98;;;;;;;;;;5095879;28;20476;-47
2022/03/21 11:21:52;;;;;;;12.38;10.30;;;;;;;;;;5114364;28;20032;-46
2022/03/21 11:24:19;;;;;;;16.67;11.07;;;;;;;;;;5123979;27;20019;-48
2022/03/21 11:26:51;;;;;;;13.35;10.23;;;;;;;;;;5134719;27;20031;-47
2022/03/21 11:29:29;;;;;;;12.82;10.13;;;;;;;;;;5133595;27;20167;-49
2022/03/21 11:31:56;;;;;;;14.18;10.65;;;;;;;;;;5135373;27;20026;-48
2022/03/21 11:34:42;;;;;;;15.20;9.75;;;;;;;;;;5121912;27;20047;-46
2022/03/21 11:37:23;;;;;;;15.88;11.43;;;;;;;;;;5114863;28;20023;-50
2022/03/21 11:39:49;;;;;;;16.15;10.25;;;;;;;;;;5126121;27;20034;-46
2022/03/21 11:42:22;;;;;;;15.85;10.45;;;;;;;;;;5116638;27;20471;-51
2022/03/21 11:45:11;;;;;;;15.90;10.27;;;;;;;;;;5128429;27;20464;-51
2022/03/21 11:47:37;;;;;;;15.80;11.60;;;;;;;;;;5103274;28;20472;-52
2022/03/21 11:50:23;;;;;;;15.70;12.25;;;;;;;;;;5107894;27;20023;-54
2022/03/21 11:53:08;;;;;;;15.27;11.07;;;;;;;;;;5135158;27;20019;-51
2022/03/21 11:55:52;;;;;;;12.68;10.88;;;;;;;;;;5121308;27;20484;-48
2022/03/21 11:58:37;;;;;;;14.90;10.77;;;;;;;;;;5096128;28;20074;-51
2022/03/21 12:01:03;;;;;;;11.98;10.27;;;;;;;;;;5132834;27;20027;-54
2022/03/21 12:03:29;;;;;;;14.40;10.90;;;;;;;;;;5134796;27;20110;-53
2022/03/21 12:05:55;;;;;;;13.25;10.70;;;;;;;;;;5133506;27;20122;-48
2022/03/21 12:08:31;;;;;;;14.75;11.13;;;;;;;;;;5134642;27;20079;-53
2022/03/21 12:10:57;;;;;;;14.82;10.13;;;;;;;;;;5111323;27;20606;-48
2022/03/21 12:13:23;;;;;;;15.98;10.82;;;;;;;;;;5114014;28;20028;-54
2022/03/21 12:15:52;;;;;;;13.85;11.15;;;;;;;;;;5114104;27;20042;-49
2022/03/21 12:18:21;;;;;;;14.82;11.30;;;;;;;;;;5114350;27;20028;-50
2022/03/21 12:20:49;;;;;;;12.85;10.98;;;;;;;;;;5113738;27;20096;-47
2022/03/21 12:23:17;;;;;;;15.15;11.43;;;;;;;;;;5115029;27;20036;-48
2022/03/21 12:25:45;;;;;;;14.90;11.02;;;;;;;;;;5114947;27;20042;-48
2022/03/21 12:31:23;;;;;;;16.60;11.18;;;;;;;;;;5115093;27;20515;-48
2022/03/21 12:33:49;;;;;;;15.55;11.50;;;;;;;;;;5113594;28;20063;-49
2022/03/21 12:36:29;;;;;;;17.50;12.77;;;;;;;;;;5112886;27;20066;-48
2022/03/21 12:38:55;;;;;;;16.00;12.02;;;;;;;;;;5113486;28;20035;-48
2022/03/21 12:41:22;;;;;;;15.93;11.68;;;;;;;;;;5115035;27;20028;-49
2022/03/21 12:43:52;;;;;;;14.65;12.07;;;;;;;;;;5095388;28;20148;-48
2022/03/21 12:46:18;;;;;;;16.67;12.73;;;;;;;;;;5113744;27;20019;-48
2022/03/21 12:49:04;;;;;;;18.08;13.32;;;;;;;;;;5134375;27;20015;-48
2022/03/21 12:51:32;;;;;;;17.70;13.38;;;;;;;;;;5115353;27;20024;-48
2022/03/21 12:54:00;;;;;;;17.83;12.82;;;;;;;;;;5113253;28;20016;-46
2022/03/21 12:56:26;;;;;;;15.32;12.98;;;;;;;;;;5112517;27;20379;-46
2022/03/21 12:58:57;;;;;;;14.25;12.82;;;;;;;;;;5118749;27;20087;-46
2022/03/21 13:01:23;;;;;;;45.78;17.77;;;;;;;;;;5132450;27;20110;-47
2022/03/21 13:03:57;;;;;;;17.10;12.88;;;;;;;;;;5133704;27;20110;-48
2022/03/21 13:11:56;;;;;;;15.52;13.68;;;;;;;;;;5113460;28;20085;-47
2022/03/21 13:14:22;;;;;;;16.58;14.77;;;;;;;;;;5113210;27;20035;-50
2022/03/21 13:16:53;;;;;;;20.85;15.50;;;;;;;;;;5112923;28;20130;-53
2022/03/21 13:19:20;;;;;;;16.65;15.05;;;;;;;;;;5112798;27;20028;-50
2022/03/21 13:21:50;;;;;;;20.27;14.70;;;;;;;;;;5112883;28;20077;-48
2022/03/21 13:24:17;;;;;;;17.52;13.43;;;;;;;;;;5112733;28;20073;-48
2022/03/21 13:26:44;;;;;;;17.95;14.73;;;;;;;;;;5112916;28;20024;-49
2022/03/21 13:29:13;;;;;;;17.60;15.40;;;;;;;;;;5112143;28;20024;-48
2022/03/21 13:31:40;;;;;;;15.20;13.65;;;;;;;;;;5113383;28;20031;-48
2022/03/21 13:34:08;;;;;;;16.20;13.50;;;;;;;;;;5112400;28;20142;-49
2022/03/21 13:36:41;;;;;;;16.85;13.65;;;;;;;;;;5124312;28;20055;-49
2022/03/21 13:39:08;;;;;;;15.30;13.48;;;;;;;;;;5133485;28;20042;-48
2022/03/21 13:41:50;;;;;;;16.55;14.88;;;;;;;;;;5113787;28;20031;-48
2022/03/21 13:44:16;;;;;;;18.08;14.13;;;;;;;;;;5112623;28;20027;-49
2022/03/21 13:46:58;;;;;;;15.48;13.43;;;;;;;;;;5113791;28;20039;-49
2022/03/21 13:49:40;;;;;;;16.13;13.15;;;;;;;;;;5116751;28;20382;-52
2022/03/21 13:52:06;;;;;;;15.95;13.93;;;;;;;;;;5116678;28;20031;-52
2022/03/21 13:54:47;;;;;;;17.08;13.90;;;;;;;;;;5134688;27;20023;-49
2022/03/21 13:57:13;;;;;;;16.17;14.50;;;;;;;;;;5116896;28;20024;-54
2022/03/21 13:59:39;;;;;;;15.18;13.60;;;;;;;;;;5115988;27;20118;-52
2022/03/21 14:02:07;;;;;;;18.35;14.30;;;;;;;;;;5116412;27;20478;-48
2022/03/21 14:04:33;;;;;;;21.13;15.10;;;;;;;;;;5115751;27;20027;-49
2022/03/21 14:07:07;;;;;;;19.83;14.63;;;;;;;;;;5107748;28;20441;-51
2022/03/21 14:09:34;;;;;;;19.48;15.00;;;;;;;;;;5115522;28;20452;-50
2022/03/21 14:12:00;;;;;;;22.63;14.95;;;;;;;;;;5136983;27;20019;-48
2022/03/21 14:14:26;;;;;;;17.65;14.27;;;;;;;;;;5136939;27;20023;-49
2022/03/21 14:16:52;;;;;;;17.75;14.63;;;;;;;;;;5116458;27;20028;-47
2022/03/21 14:19:19;;;;;;;16.92;14.88;;;;;;;;;;5125888;27;20034;-49
2022/03/21 14:21:45;;;;;;;17.98;14.20;;;;;;;;;;5106563;27;20030;-49
2022/03/21 14:24:11;;;;;;;17.83;15.20;;;;;;;;;;5122379;27;20032;-51
2022/03/21 14:26:40;;;;;;;18.10;15.00;;;;;;;;;;5123389;27;20038;-51
2022/03/21 14:29:07;;;;;;;17.80;14.50;;;;;;;;;;5128243;27;20055;-47
2022/03/21 14:34:36;;;;;;;17.35;15.10;;;;;;;;;;5115486;27;20128;-48
2022/03/21 14:37:02;;;;;;;20.42;15.23;;;;;;;;;;5135472;27;20027;-50
2022/03/21 14:39:29;;;;;;;21.05;14.88;;;;;;;;;;5135314;27;20492;-51
2022/03/21 14:41:55;;;;;;;22.52;14.63;;;;;;;;;;5134599;27;20471;-46
2022/03/21 14:44:23;;;;;;;19.13;15.30;;;;;;;;;;5135885;27;20182;-46
2022/03/21 14:46:49;;;;;;;17.13;14.25;;;;;;;;;;5115438;27;20126;-47
2022/03/21 14:49:15;;;;;;;19.60;15.63;;;;;;;;;;5117798;27;20023;-48
2022/03/21 14:51:41;;;;;;;19.48;14.98;;;;;;;;;;5132784;27;20120;-50
2022/03/21 14:54:08;;;;;;;20.45;15.02;;;;;;;;;;5136221;27;20027;-47
2022/03/21 14:56:34;;;;;;;19.70;14.80;;;;;;;;;;5130576;27;20020;-51
2022/03/21 14:59:00;;;;;;;20.08;15.63;;;;;;;;;;5113866;28;20035;-48
2022/03/21 15:01:26;;;;;;;23.05;15.77;;;;;;;;;;5114995;27;20030;-48
2022/03/21 15:03:52;;;;;;;18.30;15.10;;;;;;;;;;5115333;28;20047;-50
2022/03/21 15:06:19;;;;;;;20.38;16.10;;;;;;;;;;5115506;27;20024;-49
2022/03/21 15:08:45;;;;;;;18.58;15.23;;;;;;;;;;5120842;27;20023;-47
2022/03/21 15:11:11;;;;;;;25.98;15.63;;;;;;;;;;5122854;27;20024;-49